Time;durP1;ratioP1;P1;durP2;ratioP2;P2;SDS_P1;SDS_P2;PMS_P1;PMS_P2;Temp;Humidity;BMP_temperature;BMP_pressure;BME280_temperature;BME280_humidity;BME280_pressure;Samples;Min_cycle;Max_cycle;Signal;HPM_P1;HPM_P2
2022/09/07 00:00:33;;;;;;;0.00;0.00;;;20.90;99.90;;;;;;5034301;28;20095;-73
2022/09/07 00:02:59;;;;;;;0.00;0.00;;;20.90;99.90;;;;;;5052104;28;20029;-74
2022/09/07 00:05:27;;;;;;;0.00;0.00;;;20.90;99.90;;;;;;5051976;28;20476;-73
2022/09/07 00:07:53;;;;;;;0.10;0.10;;;20.70;99.90;;;;;;5051681;28;20104;-73
2022/09/07 00:10:19;;;;;;;0.00;0.00;;;20.80;99.90;;;;;;5034209;28;20078;-74
2022/09/07 00:12:45;;;;;;;0.03;0.03;;;20.90;99.90;;;;;;5050794;28;20024;-73
2022/09/07 00:15:11;;;;;;;0.00;0.00;;;20.90;99.90;;;;;;5051853;28;20384;-74
2022/09/07 00:17:37;;;;;;;0.03;0.03;;;20.80;99.90;;;;;;5034048;28;20074;-76
2022/09/07 00:20:06;;;;;;;0.00;0.00;;;20.60;99.90;;;;;;5052019;28;20048;-74
2022/09/07 00:22:32;;;;;;;0.00;0.00;;;20.60;99.90;;;;;;5034101;28;20024;-74
2022/09/07 00:24:58;;;;;;;0.08;0.08;;;20.60;99.90;;;;;;5033866;28;20025;-74
2022/09/07 00:27:24;;;;;;;0.10;0.10;;;20.60;99.90;;;;;;5034059;28;20365;-74
2022/09/07 00:29:49;;;;;;;0.10;0.10;;;20.60;99.90;;;;;;5017544;28;20390;-74
2022/09/07 00:32:15;;;;;;;0.10;0.10;;;20.40;99.90;;;;;;5051665;28;20021;-74
2022/09/07 00:34:41;;;;;;;0.10;0.10;;;20.50;99.90;;;;;;5051974;28;20029;-74
2022/09/07 00:37:07;;;;;;;0.00;0.00;;;20.40;99.90;;;;;;5033948;28;20087;-74
2022/09/07 00:39:34;;;;;;;0.03;0.03;;;20.40;99.90;;;;;;5051716;28;20029;-74
2022/09/07 00:42:00;;;;;;;0.00;0.00;;;20.20;99.90;;;;;;5033853;28;20032;-74
2022/09/07 00:44:41;;;;;;;0.00;0.00;;;20.20;99.90;;;;;;5051761;28;20020;-74
2022/09/07 00:47:16;;;;;;;0.20;0.20;;;20.20;99.90;;;;;;5051434;28;20025;-73
2022/09/07 00:49:44;;;;;;;0.10;0.10;;;20.10;99.90;;;;;;5033826;28;20036;-74
2022/09/07 00:52:11;;;;;;;0.10;0.10;;;20.00;99.90;;;;;;5033698;28;20020;-74
2022/09/07 00:54:45;;;;;;;0.00;0.00;;;19.90;99.90;;;;;;5033879;28;20032;-74
2022/09/07 00:57:11;;;;;;;0.00;0.00;;;19.90;99.90;;;;;;5050273;28;20079;-74
2022/09/07 00:59:43;;;;;;;0.10;0.10;;;19.80;99.90;;;;;;5047372;28;20083;-74
2022/09/07 01:02:11;;;;;;;0.00;0.00;;;19.80;99.90;;;;;;5007814;28;20026;-74
2022/09/07 01:04:37;;;;;;;0.10;0.10;;;19.80;99.90;;;;;;5043447;28;20029;-74
2022/09/07 01:07:04;;;;;;;0.08;0.08;;;20.00;99.90;;;;;;5051261;28;20021;-74
2022/09/07 01:09:31;;;;;;;0.10;0.10;;;20.20;99.90;;;;;;5034375;28;20465;-74
2022/09/07 01:11:59;;;;;;;0.00;0.00;;;20.30;99.90;;;;;;5031535;28;20049;-74
2022/09/07 01:14:39;;;;;;;0.30;0.30;;;20.20;99.90;;;;;;5013639;28;20120;-74
2022/09/07 01:17:24;;;;;;;0.20;0.20;;;19.80;99.90;;;;;;5040560;28;20480;-73
2022/09/07 01:20:38;;;;;;;0.40;0.40;;;19.50;99.90;;;;;;5053535;28;20063;-73
2022/09/07 01:23:23;;;;;;;0.45;0.38;;;19.20;99.90;;;;;;5055153;28;20116;-74
2022/09/07 01:26:30;;;;;;;0.10;0.10;;;19.00;99.90;;;;;;5037123;28;20174;-74
2022/09/07 01:29:21;;;;;;;0.00;0.00;;;19.00;99.90;;;;;;5037208;28;20029;-74
2022/09/07 01:31:56;;;;;;;0.10;0.10;;;19.00;99.90;;;;;;5054994;28;20025;-74
2022/09/07 01:34:24;;;;;;;0.10;0.10;;;19.30;99.90;;;;;;5054876;28;20085;-74
2022/09/07 01:37:01;;;;;;;0.10;0.05;;;19.40;99.90;;;;;;5054826;28;20032;-74
2022/09/07 01:39:43;;;;;;;0.00;0.00;;;19.30;99.90;;;;;;5055039;28;20025;-74
2022/09/07 01:42:14;;;;;;;0.43;0.43;;;19.30;99.90;;;;;;5037196;28;20477;-74
2022/09/07 01:44:47;;;;;;;0.10;0.10;;;19.20;99.90;;;;;;5020463;28;20021;-74
2022/09/07 01:47:35;;;;;;;0.30;0.30;;;19.10;99.90;;;;;;5054651;28;20766;-74
2022/09/07 01:50:07;;;;;;;0.10;0.10;;;18.90;99.90;;;;;;5036908;28;20021;-74
2022/09/07 01:52:41;;;;;;;1.98;0.30;;;18.90;99.90;;;;;;5036735;28;20566;-74
2022/09/07 01:55:38;;;;;;;0.52;0.52;;;18.80;99.90;;;;;;5054372;28;20017;-74
2022/09/07 01:58:07;;;;;;;0.20;0.20;;;18.70;99.90;;;;;;5023365;28;20104;-74
2022/09/07 02:00:36;;;;;;;0.77;0.47;;;18.70;99.90;;;;;;5054540;28;20392;-74
2022/09/07 02:03:13;;;;;;;0.28;0.28;;;18.70;99.90;;;;;;5054456;28;20504;-74
2022/09/07 02:05:59;;;;;;;0.10;0.10;;;18.70;99.90;;;;;;5036596;28;20029;-74
2022/09/07 02:08:40;;;;;;;0.00;0.00;;;18.80;99.90;;;;;;5036438;28;20041;-74
2022/09/07 02:11:23;;;;;;;0.10;0.10;;;18.90;99.90;;;;;;5054518;28;20107;-75
2022/09/07 02:14:04;;;;;;;0.10;0.10;;;19.10;99.90;;;;;;5054339;28;20021;-75
2022/09/07 02:16:32;;;;;;;0.10;0.10;;;19.00;99.90;;;;;;5036258;28;20025;-75
2022/09/07 02:19:06;;;;;;;0.00;0.00;;;19.20;99.90;;;;;;5036494;28;20279;-75
2022/09/07 02:21:42;;;;;;;0.03;0.03;;;19.20;99.90;;;;;;5054244;28;20051;-75
2022/09/07 02:24:24;;;;;;;0.00;0.00;;;19.30;99.90;;;;;;5019987;28;20029;-75
2022/09/07 02:26:52;;;;;;;0.03;0.03;;;19.40;99.90;;;;;;5054011;28;20052;-75
2022/09/07 02:29:19;;;;;;;0.00;0.00;;;19.50;99.90;;;;;;5053735;28;20025;-74
2022/09/07 02:31:46;;;;;;;0.10;0.10;;;19.70;99.90;;;;;;5036045;28;20555;-74
2022/09/07 02:34:12;;;;;;;0.08;0.08;;;19.60;99.90;;;;;;5036057;28;20538;-74
2022/09/07 02:36:47;;;;;;;0.10;0.10;;;19.50;99.90;;;;;;5053784;28;20025;-74
2022/09/07 02:39:13;;;;;;;0.08;0.08;;;19.60;99.90;;;;;;5053925;28;20021;-74
2022/09/07 02:41:42;;;;;;;0.00;0.00;;;19.50;99.90;;;;;;5035729;28;20029;-74
2022/09/07 02:44:25;;;;;;;0.10;0.10;;;19.50;99.90;;;;;;5053751;28;20484;-74
2022/09/07 02:47:05;;;;;;;0.00;0.00;;;19.50;99.90;;;;;;5053704;28;20108;-74
2022/09/07 02:49:58;;;;;;;0.10;0.10;;;19.40;99.90;;;;;;5035999;28;20025;-74
2022/09/07 02:52:58;;;;;;;0.10;0.10;;;19.60;99.90;;;;;;5035691;28;20120;-74
2022/09/07 02:55:51;;;;;;;0.10;0.10;;;19.80;99.90;;;;;;5053401;28;20385;-74
2022/09/07 02:58:29;;;;;;;0.10;0.10;;;19.90;99.90;;;;;;5035582;28;20048;-74
2022/09/07 03:01:12;;;;;;;0.10;0.10;;;19.90;99.90;;;;;;5053486;28;20086;-74
2022/09/07 03:03:56;;;;;;;0.08;0.08;;;19.60;99.90;;;;;;5053374;28;20021;-74
2022/09/07 03:06:30;;;;;;;0.00;0.00;;;19.40;99.90;;;;;;5053269;28;20476;-74
2022/09/07 03:09:00;;;;;;;0.10;0.10;;;19.10;99.90;;;;;;5053303;28;20025;-74
2022/09/07 03:11:28;;;;;;;0.05;0.05;;;19.10;99.90;;;;;;5053267;28;20021;-74
2022/09/07 03:14:20;;;;;;;0.00;0.00;;;19.20;99.90;;;;;;5053185;28;20071;-74
2022/09/07 03:16:52;;;;;;;0.10;0.10;;;19.20;99.90;;;;;;5052983;28;20025;-74
2022/09/07 03:19:18;;;;;;;0.10;0.10;;;19.00;99.90;;;;;;5053165;28;20504;-74
2022/09/07 03:21:44;;;;;;;1.20;1.10;;;18.80;99.90;;;;;;5035327;28;20086;-74
2022/09/07 03:24:10;;;;;;;0.05;0.05;;;18.80;99.90;;;;;;5035221;28;20124;-74
2022/09/07 03:26:39;;;;;;;0.10;0.10;;;18.60;99.90;;;;;;5052731;28;20096;-74
2022/09/07 03:29:05;;;;;;;0.10;0.10;;;18.60;99.90;;;;;;5052755;28;20442;-75
2022/09/07 03:31:32;;;;;;;0.00;0.00;;;18.60;99.90;;;;;;5052773;28;20101;-74
2022/09/07 03:33:57;;;;;;;0.10;0.10;;;18.70;99.90;;;;;;5052748;28;20036;-74
2022/09/07 03:36:23;;;;;;;0.10;0.10;;;18.90;99.90;;;;;;5052641;28;20017;-74
2022/09/07 03:38:49;;;;;;;0.10;0.10;;;19.00;99.90;;;;;;5034763;28;20024;-74
2022/09/07 03:41:15;;;;;;;0.00;0.00;;;19.00;99.90;;;;;;5051992;28;20125;-74
2022/09/07 03:43:42;;;;;;;0.10;0.10;;;19.10;99.90;;;;;;5034819;28;20392;-74
2022/09/07 03:46:09;;;;;;;0.10;0.10;;;19.10;99.90;;;;;;5052431;28;20170;-74
2022/09/07 03:48:37;;;;;;;0.10;0.10;;;19.10;99.90;;;;;;5052547;28;20373;-74
2022/09/07 03:51:06;;;;;;;0.10;0.10;;;19.00;99.90;;;;;;5052605;28;20548;-75
2022/09/07 03:53:41;;;;;;;0.00;0.00;;;19.00;99.90;;;;;;5052348;28;20020;-74
2022/09/07 03:56:13;;;;;;;0.10;0.10;;;19.30;99.90;;;;;;5052057;28;20040;-74
2022/09/07 03:58:38;;;;;;;0.00;0.00;;;19.10;99.90;;;;;;5018069;28;20082;-74
2022/09/07 04:01:10;;;;;;;0.00;0.00;;;19.30;99.90;;;;;;5052349;28;20037;-74
2022/09/07 04:03:36;;;;;;;0.03;0.03;;;19.30;99.90;;;;;;5052252;28;20029;-74
2022/09/07 04:06:03;;;;;;;0.08;0.08;;;19.20;99.90;;;;;;5034133;28;20106;-74
2022/09/07 04:08:31;;;;;;;0.00;0.00;;;19.30;99.90;;;;;;5034148;28;20056;-74
2022/09/07 04:10:58;;;;;;;0.10;0.10;;;19.40;99.90;;;;;;5034284;28;20041;-75
2022/09/07 04:13:25;;;;;;;0.15;0.15;;;19.40;99.90;;;;;;5051933;28;20091;-74
2022/09/07 04:15:52;;;;;;;0.10;0.10;;;19.20;99.90;;;;;;5051856;28;20056;-74
2022/09/07 04:18:18;;;;;;;0.10;0.10;;;19.00;99.90;;;;;;5052069;28;20488;-74
2022/09/07 04:20:44;;;;;;;0.08;0.08;;;18.90;99.90;;;;;;5052048;28;20086;-74
2022/09/07 04:23:10;;;;;;;0.00;0.00;;;19.10;99.90;;;;;;5051962;28;20029;-74
2022/09/07 04:25:36;;;;;;;0.10;0.10;;;19.30;99.90;;;;;;5051731;28;20036;-74
2022/09/07 04:28:03;;;;;;;0.10;0.10;;;19.40;99.90;;;;;;5051793;28;20425;-74
2022/09/07 04:30:29;;;;;;;0.10;0.10;;;19.30;99.90;;;;;;5051899;28;20016;-74
2022/09/07 04:32:54;;;;;;;0.10;0.10;;;19.30;99.90;;;;;;5051783;28;20491;-74
2022/09/07 04:35:21;;;;;;;0.10;0.10;;;19.40;99.90;;;;;;5033822;28;20064;-75
2022/09/07 04:37:47;;;;;;;0.00;0.00;;;19.50;99.90;;;;;;5012715;28;20485;-74
2022/09/07 04:40:13;;;;;;;0.10;0.10;;;19.30;99.90;;;;;;5031822;28;20052;-74
2022/09/07 04:42:39;;;;;;;0.03;0.03;;;19.20;99.90;;;;;;5031755;28;20104;-74
2022/09/07 04:45:05;;;;;;;1.77;0.65;;;19.20;99.90;;;;;;5015286;28;20496;-75
2022/09/07 04:47:31;;;;;;;0.55;0.55;;;19.20;99.90;;;;;;5051697;28;20166;-74
2022/09/07 04:49:56;;;;;;;0.10;0.10;;;19.10;99.90;;;;;;5044086;28;20052;-74
2022/09/07 04:52:23;;;;;;;0.13;0.13;;;19.10;99.90;;;;;;5034229;28;20591;-74
2022/09/07 04:54:49;;;;;;;0.10;0.10;;;19.00;99.90;;;;;;5054321;28;20126;-74
2022/09/07 04:57:17;;;;;;;0.00;0.00;;;19.00;99.90;;;;;;5055597;28;20041;-74
2022/09/07 04:59:42;;;;;;;0.08;0.08;;;19.00;99.90;;;;;;5055680;28;20029;-74
2022/09/07 05:02:08;;;;;;;0.00;0.00;;;19.00;99.90;;;;;;5037862;28;20033;-74
2022/09/07 05:04:35;;;;;;;0.10;0.10;;;19.20;99.90;;;;;;5055567;28;20388;-74
2022/09/07 05:07:01;;;;;;;0.00;0.00;;;19.30;99.90;;;;;;5055216;28;20017;-74
2022/09/07 05:09:26;;;;;;;0.10;0.10;;;19.30;99.90;;;;;;5055287;28;20025;-74
2022/09/07 05:11:53;;;;;;;0.08;0.08;;;19.20;99.90;;;;;;5037454;28;20481;-74
2022/09/07 05:14:19;;;;;;;0.00;0.00;;;19.10;99.90;;;;;;5037510;28;20108;-74
2022/09/07 05:16:44;;;;;;;0.08;0.08;;;19.00;99.90;;;;;;5055212;28;20552;-74
2022/09/07 05:19:12;;;;;;;0.10;0.10;;;19.00;99.90;;;;;;5055340;28;20024;-74
2022/09/07 05:21:38;;;;;;;0.00;0.00;;;19.10;99.90;;;;;;5055023;28;20061;-74
2022/09/07 05:24:05;;;;;;;0.00;0.00;;;19.10;99.90;;;;;;5055254;28;20047;-74
2022/09/07 05:26:34;;;;;;;0.10;0.10;;;19.00;99.90;;;;;;5055055;28;20036;-74
2022/09/07 05:29:01;;;;;;;0.00;0.00;;;19.10;99.90;;;;;;5037346;28;20025;-75
2022/09/07 05:31:27;;;;;;;0.10;0.10;;;19.30;99.90;;;;;;5054752;28;20025;-75
2022/09/07 05:33:57;;;;;;;0.10;0.10;;;19.40;99.90;;;;;;5055130;28;20557;-74
2022/09/07 05:36:26;;;;;;;0.10;0.10;;;19.20;99.90;;;;;;5054831;28;20438;-74
2022/09/07 05:38:53;;;;;;;0.00;0.00;;;19.30;99.90;;;;;;5037111;28;20025;-74
2022/09/07 05:41:21;;;;;;;0.00;0.00;;;19.40;99.90;;;;;;5037086;28;20074;-74
2022/09/07 05:43:47;;;;;;;0.10;0.10;;;19.40;99.90;;;;;;5054834;28;20031;-74
2022/09/07 05:46:14;;;;;;;0.10;0.10;;;19.40;99.90;;;;;;5054607;28;20021;-74
2022/09/07 05:48:41;;;;;;;0.05;0.05;;;19.30;99.90;;;;;;5054772;28;20050;-74
2022/09/07 05:51:07;;;;;;;0.00;0.00;;;19.10;99.90;;;;;;5037006;28;20025;-74
2022/09/07 05:53:34;;;;;;;0.10;0.10;;;19.20;99.90;;;;;;5042509;28;20025;-74
2022/09/07 05:56:01;;;;;;;0.10;0.10;;;19.00;99.90;;;;;;5037180;28;20523;-74
2022/09/07 05:58:27;;;;;;;0.40;0.25;;;19.00;99.90;;;;;;5016574;28;20025;-74
2022/09/07 06:00:58;;;;;;;0.00;0.00;;;19.10;99.90;;;;;;5039599;28;20092;-74
2022/09/07 06:03:24;;;;;;;0.00;0.00;;;19.10;99.90;;;;;;5036599;28;20063;-74
2022/09/07 06:06:11;;;;;;;0.17;0.17;;;19.10;99.90;;;;;;5053709;28;20029;-75
2022/09/07 06:08:38;;;;;;;0.00;0.00;;;19.20;99.90;;;;;;5054158;28;20381;-74
2022/09/07 06:11:05;;;;;;;0.08;0.08;;;19.30;99.90;;;;;;5048697;28;20023;-74
2022/09/07 06:13:32;;;;;;;0.10;0.10;;;19.40;99.90;;;;;;5054513;28;20365;-74
2022/09/07 06:16:02;;;;;;;0.38;0.30;;;19.50;99.90;;;;;;5036199;28;20029;-74
2022/09/07 06:18:30;;;;;;;0.03;0.03;;;19.60;99.90;;;;;;5036521;28;20487;-74
2022/09/07 06:21:01;;;;;;;0.05;0.05;;;19.80;99.90;;;;;;5036347;28;20021;-74
2022/09/07 06:23:28;;;;;;;0.00;0.00;;;19.80;99.90;;;;;;5036371;28;20025;-74
2022/09/07 06:25:54;;;;;;;0.10;0.10;;;19.90;99.90;;;;;;5035751;28;20056;-74
2022/09/07 06:28:25;;;;;;;0.00;0.00;;;19.60;99.90;;;;;;5033967;28;20077;-74
2022/09/07 06:30:51;;;;;;;0.00;0.00;;;19.60;99.90;;;;;;5016550;28;20048;-75
2022/09/07 06:33:16;;;;;;;0.10;0.10;;;19.60;99.90;;;;;;5033925;28;20022;-74
2022/09/07 06:35:42;;;;;;;0.00;0.00;;;19.70;99.90;;;;;;5015979;28;20026;-75
2022/09/07 06:38:08;;;;;;;0.00;0.00;;;19.80;99.90;;;;;;5016130;28;20476;-73
2022/09/07 06:40:34;;;;;;;0.00;0.00;;;19.90;99.90;;;;;;5015929;28;20108;-74
2022/09/07 06:43:00;;;;;;;0.00;0.00;;;20.00;99.90;;;;;;5015881;28;20453;-74
2022/09/07 06:45:26;;;;;;;0.08;0.08;;;20.20;99.90;;;;;;5018357;28;20040;-74
2022/09/07 06:47:53;;;;;;;0.00;0.00;;;20.20;99.90;;;;;;5021791;28;20017;-74
2022/09/07 06:50:19;;;;;;;0.10;0.10;;;20.30;99.90;;;;;;5053094;28;20096;-74
2022/09/07 06:52:44;;;;;;;0.10;0.10;;;20.20;99.90;;;;;;5052897;28;20100;-74
2022/09/07 06:55:10;;;;;;;0.00;0.00;;;20.20;99.90;;;;;;5035188;28;20116;-74
2022/09/07 06:57:36;;;;;;;0.17;0.17;;;20.20;99.90;;;;;;5053260;28;20029;-74
2022/09/07 07:00:02;;;;;;;0.10;0.10;;;20.30;99.90;;;;;;5053478;28;20028;-73
2022/09/07 07:02:28;;;;;;;0.10;0.10;;;20.40;99.90;;;;;;5036281;28;20029;-73
2022/09/07 07:04:54;;;;;;;0.00;0.00;;;20.60;99.90;;;;;;5033310;28;20113;-73
2022/09/07 07:07:19;;;;;;;0.10;0.10;;;20.70;99.90;;;;;;5033360;28;20036;-74
2022/09/07 07:09:45;;;;;;;0.00;0.00;;;20.90;99.90;;;;;;5031597;28;20021;-74
2022/09/07 07:12:11;;;;;;;0.00;0.00;;;21.00;99.90;;;;;;5031960;28;20021;-74
2022/09/07 07:14:37;;;;;;;0.00;0.00;;;21.00;99.90;;;;;;5033290;28;20469;-74
2022/09/07 07:17:03;;;;;;;0.00;0.00;;;21.00;99.90;;;;;;5031902;28;20021;-73
2022/09/07 07:19:28;;;;;;;0.00;0.00;;;21.00;99.90;;;;;;5031712;28;20021;-73
2022/09/07 07:21:54;;;;;;;0.00;0.00;;;21.10;99.90;;;;;;5031853;28;20022;-74
2022/09/07 07:24:21;;;;;;;0.03;0.03;;;21.30;99.90;;;;;;5033161;28;20105;-74
2022/09/07 07:26:47;;;;;;;0.00;0.00;;;21.20;99.90;;;;;;5032841;28;20051;-74
2022/09/07 07:29:13;;;;;;;0.13;0.13;;;21.30;99.90;;;;;;5032988;28;20116;-75
2022/09/07 07:31:39;;;;;;;0.03;0.03;;;21.50;99.90;;;;;;5032720;28;20100;-74
2022/09/07 07:34:05;;;;;;;0.00;0.00;;;21.70;99.90;;;;;;5032766;28;20229;-74
2022/09/07 07:36:31;;;;;;;0.00;0.00;;;21.80;99.90;;;;;;5032672;28;20028;-74
2022/09/07 07:38:56;;;;;;;0.00;0.00;;;21.90;99.90;;;;;;5031552;28;20026;-75
2022/09/07 07:41:26;;;;;;;0.00;0.00;;;21.80;99.90;;;;;;5032776;28;20017;-74
2022/09/07 07:43:57;;;;;;;9.10;8.52;;;21.80;99.90;;;;;;5032509;28;20025;-75
2022/09/07 07:46:26;;;;;;;0.00;0.00;;;21.80;99.90;;;;;;5032522;28;20037;-74
2022/09/07 07:48:52;;;;;;;0.10;0.08;;;21.90;99.90;;;;;;5032608;28;20018;-74
2022/09/07 07:51:19;;;;;;;0.00;0.00;;;22.00;99.90;;;;;;5032525;28;20029;-74
2022/09/07 07:53:45;;;;;;;0.00;0.00;;;22.20;99.90;;;;;;5032416;28;20406;-74
2022/09/07 07:56:11;;;;;;;0.00;0.00;;;22.30;99.90;;;;;;5031031;28;20033;-74
2022/09/07 07:58:38;;;;;;;0.00;0.00;;;22.50;99.90;;;;;;5032242;28;20078;-74
2022/09/07 08:01:11;;;;;;;0.43;0.43;;;22.60;99.90;;;;;;5030859;28;20025;-74
2022/09/07 08:03:39;;;;;;;0.00;0.00;;;22.60;99.90;;;;;;5032228;28;20068;-74
2022/09/07 08:06:10;;;;;;;0.00;0.00;;;22.60;99.90;;;;;;5032078;28;20025;-74
2022/09/07 08:08:36;;;;;;;0.00;0.00;;;22.70;99.90;;;;;;5032024;28;20104;-74
2022/09/07 08:11:07;;;;;;;0.00;0.00;;;22.70;99.90;;;;;;5031854;28;20508;-74
2022/09/07 08:13:40;;;;;;;0.00;0.00;;;22.90;99.90;;;;;;5031884;28;20470;-74
2022/09/07 08:16:06;;;;;;;0.00;0.00;;;23.00;99.90;;;;;;5030470;28;20021;-74
2022/09/07 08:18:33;;;;;;;0.00;0.00;;;23.10;99.90;;;;;;5031924;28;20473;-74
2022/09/07 08:21:01;;;;;;;0.00;0.00;;;23.30;99.90;;;;;;5031613;28;20452;-74
2022/09/07 08:23:27;;;;;;;0.00;0.00;;;23.50;99.90;;;;;;5023857;28;20025;-74
2022/09/07 08:25:57;;;;;;;0.00;0.00;;;23.50;99.90;;;;;;5031702;28;20543;-74
2022/09/07 08:28:23;;;;;;;0.00;0.00;;;23.60;99.90;;;;;;5031560;28;20025;-74
2022/09/07 08:30:49;;;;;;;0.00;0.00;;;23.60;99.90;;;;;;5030347;28;20091;-74
2022/09/07 08:33:15;;;;;;;0.00;0.00;;;23.70;99.90;;;;;;5030225;28;20025;-74
2022/09/07 08:35:41;;;;;;;0.00;0.00;;;23.40;99.90;;;;;;5030312;28;20079;-74
2022/09/07 08:38:07;;;;;;;0.00;0.00;;;23.50;99.90;;;;;;5031508;28;20446;-74
2022/09/07 08:40:36;;;;;;;0.00;0.00;;;23.70;99.90;;;;;;5030366;28;20036;-74
2022/09/07 08:43:26;;;;;;;0.25;0.25;;;24.00;99.90;;;;;;5030377;28;20025;-75
2022/09/07 08:45:56;;;;;;;0.00;0.00;;;24.20;99.90;;;;;;5031436;28;20477;-71
2022/09/07 08:48:32;;;;;;;0.00;0.00;;;24.30;99.90;;;;;;5031489;28;20076;-73
2022/09/07 08:51:08;;;;;;;0.00;0.00;;;24.30;99.90;;;;;;5031532;28;20017;-74
2022/09/07 08:53:41;;;;;;;0.20;0.20;;;24.30;99.90;;;;;;5030394;28;20028;-73
2022/09/07 08:56:33;;;;;;;0.00;0.00;;;24.10;99.90;;;;;;5031260;28;20030;-74
2022/09/07 08:59:01;;;;;;;0.70;0.30;;;24.00;99.90;;;;;;5023011;28;20049;-73
2022/09/07 09:01:32;;;;;;;0.00;0.00;;;23.90;99.90;;;;;;5031424;28;20128;-73
2022/09/07 09:03:59;;;;;;;0.22;0.20;;;24.00;99.30;;;;;;5031389;28;20512;-73
2022/09/07 09:06:35;;;;;;;3.40;0.38;;;23.80;99.50;;;;;;5031392;28;20582;-74
2022/09/07 09:09:13;;;;;;;0.00;0.00;;;24.00;99.20;;;;;;5031265;28;20041;-74
2022/09/07 09:12:15;;;;;;;0.00;0.00;;;24.00;99.20;;;;;;5031239;28;20037;-74
2022/09/07 09:14:52;;;;;;;0.00;0.00;;;24.10;98.40;;;;;;5031431;28;20018;-74
2022/09/07 09:17:29;;;;;;;0.00;0.00;;;24.30;97.00;;;;;;5031174;28;20033;-74
2022/09/07 09:20:19;;;;;;;0.00;0.00;;;24.40;96.60;;;;;;5031157;28;20025;-74
2022/09/07 09:22:45;;;;;;;0.05;0.05;;;24.30;97.60;;;;;;5031269;28;20032;-74
2022/09/07 09:25:25;;;;;;;0.40;0.40;;;25.00;97.50;;;;;;5029781;28;20026;-74
2022/09/07 09:27:51;;;;;;;2.92;2.25;;;25.20;94.80;;;;;;5031058;28;20033;-74
2022/09/07 09:30:20;;;;;;;0.35;0.05;;;25.50;93.10;;;;;;5031055;28;20060;-74
2022/09/07 09:32:48;;;;;;;1.17;0.75;;;25.10;92.70;;;;;;5030928;28;20030;-73
2022/09/07 09:35:35;;;;;;;0.00;0.00;;;24.80;94.20;;;;;;5030835;28;20033;-74
2022/09/07 09:38:04;;;;;;;0.00;0.00;;;24.80;94.40;;;;;;5030724;28;20037;-74
2022/09/07 09:40:32;;;;;;;0.00;0.00;;;24.90;94.30;;;;;;5033217;28;20030;-74
2022/09/07 09:43:04;;;;;;;0.00;0.00;;;25.00;93.30;;;;;;5034382;28;20053;-74
2022/09/07 09:45:34;;;;;;;0.00;0.00;;;25.10;93.00;;;;;;5034594;28;20021;-74
2022/09/07 09:48:01;;;;;;;0.00;0.00;;;25.00;93.20;;;;;;5033458;28;20083;-74
2022/09/07 09:50:35;;;;;;;0.00;0.00;;;24.80;92.50;;;;;;5034625;28;20074;-74
2022/09/07 09:53:04;;;;;;;0.00;0.00;;;24.50;92.50;;;;;;5032942;28;20029;-74
2022/09/07 09:55:33;;;;;;;0.05;0.05;;;24.40;93.30;;;;;;5034165;28;20033;-74
2022/09/07 09:58:01;;;;;;;2.80;2.08;;;24.30;93.80;;;;;;5034568;28;20022;-73
2022/09/07 10:00:30;;;;;;;0.00;0.00;;;24.10;93.50;;;;;;5034531;28;20041;-74
2022/09/07 10:03:14;;;;;;;0.00;0.00;;;24.10;93.80;;;;;;5034249;28;20029;-73
2022/09/07 10:05:45;;;;;;;0.00;0.00;;;24.00;94.40;;;;;;5034915;28;20037;-75
2022/09/07 10:08:29;;;;;;;0.00;0.00;;;24.10;94.50;;;;;;5034532;28;20029;-75
2022/09/07 10:11:01;;;;;;;2.83;1.80;;;24.10;94.50;;;;;;5033032;28;20269;-75
2022/09/07 10:13:31;;;;;;;0.25;0.25;;;23.90;94.60;;;;;;5015929;28;20028;-74
2022/09/07 10:15:59;;;;;;;0.00;0.00;;;23.90;95.20;;;;;;5035910;28;20021;-75
2022/09/07 10:18:39;;;;;;;32.60;3.00;;;23.90;95.50;;;;;;5053950;28;20155;-74
2022/09/07 10:21:22;;;;;;;0.10;0.10;;;23.70;95.80;;;;;;5027832;28;20109;-75
2022/09/07 10:24:00;;;;;;;0.00;0.00;;;23.80;96.30;;;;;;5033868;28;20028;-74
2022/09/07 10:26:31;;;;;;;0.00;0.00;;;23.80;96.50;;;;;;5033318;28;20481;-75
2022/09/07 10:29:14;;;;;;;;;;;23.80;96.80;;;;;;5036598;28;20108;-75
2022/09/07 10:31:54;;;;;;;0.10;0.10;;;24.00;96.90;;;;;;5035840;28;19944;-75
2022/09/07 10:34:50;;;;;;;0.00;0.00;;;24.10;96.60;;;;;;5053840;28;20021;-75
2022/09/07 10:37:42;;;;;;;0.00;0.00;;;24.10;96.20;;;;;;5053704;28;20025;-75
2022/09/07 10:40:28;;;;;;;0.00;0.00;;;24.30;96.50;;;;;;5053618;28;20107;-75
2022/09/07 10:43:08;;;;;;;0.00;0.00;;;24.40;95.80;;;;;;5035581;28;20036;-75
2022/09/07 10:45:44;;;;;;;0.00;0.00;;;24.50;95.80;;;;;;5053741;28;20035;-75
2022/09/07 10:48:17;;;;;;;0.00;0.00;;;24.50;95.90;;;;;;5053510;28;20021;-75
2022/09/07 10:50:48;;;;;;;0.00;0.00;;;24.60;96.00;;;;;;5035287;28;20119;-75
2022/09/07 10:53:33;;;;;;;0.00;0.00;;;24.60;96.40;;;;;;5053668;28;20021;-75
2022/09/07 10:56:07;;;;;;;0.00;0.00;;;24.60;96.30;;;;;;5035232;28;20052;-75
2022/09/07 10:58:47;;;;;;;0.00;0.00;;;24.60;96.50;;;;;;5053258;28;20120;-75
2022/09/07 11:01:18;;;;;;;0.00;0.00;;;24.70;95.30;;;;;;5053204;28;20388;-75
2022/09/07 11:04:03;;;;;;;0.00;0.00;;;24.90;95.20;;;;;;5053199;28;20025;-75
2022/09/07 11:06:39;;;;;;;0.00;0.00;;;25.00;95.10;;;;;;5053003;28;20275;-75
2022/09/07 11:09:14;;;;;;;0.10;0.10;;;25.10;94.00;;;;;;5052875;28;20033;-75
2022/09/07 11:11:49;;;;;;;0.00;0.00;;;25.20;94.40;;;;;;5052942;28;20366;-75
2022/09/07 11:14:19;;;;;;;0.00;0.00;;;25.20;94.20;;;;;;5052993;28;20103;-75
2022/09/07 11:17:03;;;;;;;0.00;0.00;;;25.30;93.70;;;;;;5052606;28;20028;-75
2022/09/07 11:19:56;;;;;;;0.00;0.00;;;25.50;93.50;;;;;;5052802;28;20553;-75
2022/09/07 11:22:33;;;;;;;0.00;0.00;;;25.60;92.20;;;;;;5052771;28;20079;-75
2022/09/07 11:25:14;;;;;;;0.10;0.10;;;25.70;92.10;;;;;;5018087;28;20091;-75
2022/09/07 11:27:54;;;;;;;0.00;0.00;;;25.90;91.20;;;;;;5052803;28;20025;-75
2022/09/07 11:30:30;;;;;;;0.00;0.00;;;26.20;91.00;;;;;;5051014;28;20088;-75
2022/09/07 11:33:21;;;;;;;0.00;0.00;;;26.50;90.70;;;;;;5043378;28;20037;-75
2022/09/07 11:35:54;;;;;;;0.00;0.00;;;26.50;87.70;;;;;;5020304;28;20207;-74
2022/09/07 11:38:29;;;;;;;0.00;0.00;;;26.40;87.50;;;;;;5032727;28;20041;-75
2022/09/07 11:41:26;;;;;;;0.10;0.10;;;26.50;86.40;;;;;;5052500;28;20079;-75
2022/09/07 11:43:56;;;;;;;0.00;0.00;;;26.70;84.80;;;;;;5051191;28;20045;-75
2022/09/07 11:46:40;;;;;;;0.00;0.00;;;26.60;83.30;;;;;;5034243;28;20032;-75
2022/09/07 11:49:21;;;;;;;0.00;0.00;;;26.50;83.70;;;;;;5046653;28;20033;-75
2022/09/07 11:52:01;;;;;;;0.00;0.00;;;26.60;85.00;;;;;;5052168;28;20106;-75
2022/09/07 11:54:59;;;;;;;0.05;0.05;;;26.60;83.00;;;;;;5052303;28;20409;-75
2022/09/07 11:57:31;;;;;;;2.22;2.00;;;26.50;83.80;;;;;;5043807;28;20098;-75
2022/09/07 12:00:07;;;;;;;;;;;26.40;83.90;;;;;;5052334;28;20060;-75
2022/09/07 12:02:53;;;;;;;0.00;0.00;;;26.30;84.20;;;;;;5051036;28;20276;-75
2022/09/07 12:05:26;;;;;;;0.00;0.00;;;26.70;83.30;;;;;;5050506;28;20029;-75
2022/09/07 12:08:12;;;;;;;0.00;0.00;;;26.90;78.60;;;;;;5051894;28;20028;-76
2022/09/07 12:10:55;;;;;;;0.00;0.00;;;27.10;78.30;;;;;;5050877;28;20021;-74
2022/09/07 12:13:33;;;;;;;0.00;0.00;;;27.20;76.90;;;;;;5050513;28;20033;-74
2022/09/07 12:16:18;;;;;;;0.10;0.10;;;27.30;75.40;;;;;;5051248;28;20104;-74
2022/09/07 12:19:26;;;;;;;0.00;0.00;;;27.40;76.10;;;;;;5033988;28;20032;-74
2022/09/07 12:21:51;;;;;;;0.00;0.00;;;27.70;76.10;;;;;;5009714;28;20038;-74
2022/09/07 12:24:35;;;;;;;1.17;0.15;;;27.50;75.90;;;;;;5009868;28;20577;-74
2022/09/07 12:27:07;;;;;;;0.00;0.00;;;27.80;74.40;;;;;;5034941;28;20041;-74
2022/09/07 12:29:33;;;;;;;0.00;0.00;;;28.10;73.50;;;;;;5051693;28;20517;-74
2022/09/07 12:32:03;;;;;;;1.65;1.25;;;28.00;73.10;;;;;;5051503;28;20017;-74
2022/09/07 12:34:31;;;;;;;0.10;0.10;;;27.90;72.70;;;;;;5043804;28;20021;-74
2022/09/07 12:37:18;;;;;;;0.00;0.00;;;27.60;71.00;;;;;;5047171;28;20036;-74
2022/09/07 12:39:44;;;;;;;0.32;0.32;;;27.50;69.90;;;;;;5031245;28;20026;-74
2022/09/07 12:42:25;;;;;;;0.70;0.70;;;27.70;69.80;;;;;;5013881;28;20481;-74
2022/09/07 12:45:45;;;;;;;0.00;0.00;;;27.60;68.90;;;;;;5031389;28;20052;-74
2022/09/07 12:48:14;;;;;;;0.05;0.05;;;27.70;68.90;;;;;;5013650;28;20037;-74
2022/09/07 12:50:54;;;;;;;0.00;0.00;;;27.80;67.70;;;;;;5031565;28;20096;-73
2022/09/07 12:53:32;;;;;;;0.00;0.00;;;27.70;69.00;;;;;;5031345;28;20083;-73
2022/09/07 12:56:19;;;;;;;0.20;0.08;;;27.70;68.70;;;;;;5030945;28;20033;-73
2022/09/07 12:58:50;;;;;;;0.00;0.00;;;27.50;68.20;;;;;;5031553;28;20094;-73
2022/09/07 13:01:44;;;;;;;0.00;0.00;;;27.40;68.70;;;;;;5031468;28;20037;-74
2022/09/07 13:04:28;;;;;;;0.30;0.30;;;27.30;69.00;;;;;;5030117;28;20033;-73
2022/09/07 13:07:31;;;;;;;0.00;0.00;;;27.20;68.80;;;;;;5013483;28;20523;-74
2022/09/07 13:10:02;;;;;;;0.00;0.00;;;27.10;68.10;;;;;;5031233;28;20034;-74
2022/09/07 13:12:37;;;;;;;0.00;0.00;;;27.20;68.70;;;;;;5031152;28;20029;-75
2022/09/07 13:15:04;;;;;;;0.00;0.00;;;27.30;70.20;;;;;;5032676;28;20033;-75